Latest METARs, TAFs and NOTAMs for MMPR


---------------------------------------------------------------------------
	(OBSERVATIONS)
MMPR 271747Z 00000KT 15SM  SKC 26/14 A2996 RMK SLP145 52008 900=
MMPR 271649Z 00000KT 15SM SKC 27/13 A2997 RMK AC=
MMPR 271547Z 04004KT 15SM  SCT250 22/15 A2998 RMK 8/001=
---------------------------------------------------------------------------
	(TERMINAL AREA FORECAST)
MMPR 271635Z 2718/2824 22010KT P6SM SKC TX26/2720Z TN17/2812Z
    BECMG 2802/2803 00000KT
    FM281700 24012KT P6SM SKC=
---------------------------------------------------------------------------
	(NOTAMS)


MMPR A0600/17 CD OPR FREQ 121.9 MHZ. 1600/2300 DLY, 27 JAN 16:54
    2017 UNTIL 01 APR 23:00 2017. CREATED: 27 JAN 16:56 2017

---------------------------------------------------------------------------